sensor_id;sensor_type;location;lat;lon;timestamp;temperature;humidity
74822;DHT22;63353;48.702;8.884;2023-04-03T00:01:48;2.00;99.90
74822;DHT22;63353;48.702;8.884;2023-04-03T00:04:20;1.90;99.90
74822;DHT22;63353;48.702;8.884;2023-04-03T00:06:48;1.90;99.90
74822;DHT22;63353;48.702;8.884;2023-04-03T00:09:20;1.90;99.90
74822;DHT22;63353;48.702;8.884;2023-04-03T00:11:46;2.00;99.90
74822;DHT22;63353;48.702;8.884;2023-04-03T00:14:14;2.00;99.90
74822;DHT22;63353;48.702;8.884;2023-04-03T00:16:43;1.90;99.90
74822;DHT22;63353;48.702;8.884;2023-04-03T00:19:09;1.90;99.90
74822;DHT22;63353;48.702;8.884;2023-04-03T00:21:43;2.00;99.90
74822;DHT22;63353;48.702;8.884;2023-04-03T00:24:20;1.90;99.90
74822;DHT22;63353;48.702;8.884;2023-04-03T00:27:20;1.90;99.90
74822;DHT22;63353;48.702;8.884;2023-04-03T00:29:52;1.90;99.90
74822;DHT22;63353;48.702;8.884;2023-04-03T00:32:23;1.80;99.90
74822;DHT22;63353;48.702;8.884;2023-04-03T00:34:49;1.80;99.90
74822;DHT22;63353;48.702;8.884;2023-04-03T00:37:18;1.80;99.90
74822;DHT22;63353;48.702;8.884;2023-04-03T00:39:44;1.70;99.90
74822;DHT22;63353;48.702;8.884;2023-04-03T00:42:18;1.70;99.90
74822;DHT22;63353;48.702;8.884;2023-04-03T00:47:29;1.70;99.90
74822;DHT22;63353;48.702;8.884;2023-04-03T00:49:56;1.60;99.90
74822;DHT22;63353;48.702;8.884;2023-04-03T00:52:31;1.60;99.90
74822;DHT22;63353;48.702;8.884;2023-04-03T00:55:05;1.60;99.90
74822;DHT22;63353;48.702;8.884;2023-04-03T00:57:33;1.60;99.90
74822;DHT22;63353;48.702;8.884;2023-04-03T01:00:13;1.60;99.90
74822;DHT22;63353;48.702;8.884;2023-04-03T01:02:40;1.50;99.90
74822;DHT22;63353;48.702;8.884;2023-04-03T01:05:09;1.50;99.90
74822;DHT22;63353;48.702;8.884;2023-04-03T01:07:35;1.60;99.90
74822;DHT22;63353;48.702;8.884;2023-04-03T01:10:18;1.50;99.90
74822;DHT22;63353;48.702;8.884;2023-04-03T01:12:50;1.50;99.90
74822;DHT22;63353;48.702;8.884;2023-04-03T01:15:25;1.50;99.90
74822;DHT22;63353;48.702;8.884;2023-04-03T01:17:58;1.50;99.90
74822;DHT22;63353;48.702;8.884;2023-04-03T01:20:42;1.50;99.90
74822;DHT22;63353;48.702;8.884;2023-04-03T01:26:03;1.40;99.90
74822;DHT22;63353;48.702;8.884;2023-04-03T01:28:33;1.40;99.90
74822;DHT22;63353;48.702;8.884;2023-04-03T01:34:02;1.40;99.90
74822;DHT22;63353;48.702;8.884;2023-04-03T01:36:34;1.40;99.90
74822;DHT22;63353;48.702;8.884;2023-04-03T01:39:03;1.40;99.90
74822;DHT22;63353;48.702;8.884;2023-04-03T01:41:28;1.30;99.90
74822;DHT22;63353;48.702;8.884;2023-04-03T01:43:57;1.30;99.90
74822;DHT22;63353;48.702;8.884;2023-04-03T01:46:26;1.30;99.90
74822;DHT22;63353;48.702;8.884;2023-04-03T01:48:55;1.30;99.90
74822;DHT22;63353;48.702;8.884;2023-04-03T01:51:35;1.30;99.90
74822;DHT22;63353;48.702;8.884;2023-04-03T01:54:16;1.30;99.90
74822;DHT22;63353;48.702;8.884;2023-04-03T01:56:42;1.20;99.90
74822;DHT22;63353;48.702;8.884;2023-04-03T01:59:13;1.20;99.90
74822;DHT22;63353;48.702;8.884;2023-04-03T02:01:47;1.20;99.90
74822;DHT22;63353;48.702;8.884;2023-04-03T02:04:22;1.10;99.90
74822;DHT22;63353;48.702;8.884;2023-04-03T02:06:48;1.10;99.90
74822;DHT22;63353;48.702;8.884;2023-04-03T02:09:14;1.10;99.90
74822;DHT22;63353;48.702;8.884;2023-04-03T02:11:40;1.00;99.90
74822;DHT22;63353;48.702;8.884;2023-04-03T02:14:06;1.00;99.90
74822;DHT22;63353;48.702;8.884;2023-04-03T02:16:38;1.00;99.90
74822;DHT22;63353;48.702;8.884;2023-04-03T02:19:06;0.90;99.90
74822;DHT22;63353;48.702;8.884;2023-04-03T02:21:32;0.90;99.90
74822;DHT22;63353;48.702;8.884;2023-04-03T02:24:07;0.90;99.90
74822;DHT22;63353;48.702;8.884;2023-04-03T02:26:33;0.90;99.90
74822;DHT22;63353;48.702;8.884;2023-04-03T02:29:04;0.90;99.90
74822;DHT22;63353;48.702;8.884;2023-04-03T02:31:34;0.90;99.90
74822;DHT22;63353;48.702;8.884;2023-04-03T02:33:59;0.90;99.90
74822;DHT22;63353;48.702;8.884;2023-04-03T02:36:25;0.90;99.90
74822;DHT22;63353;48.702;8.884;2023-04-03T02:38:51;0.90;99.90
74822;DHT22;63353;48.702;8.884;2023-04-03T02:41:19;0.90;99.90
74822;DHT22;63353;48.702;8.884;2023-04-03T02:43:55;1.00;99.90
74822;DHT22;63353;48.702;8.884;2023-04-03T02:46:21;1.00;99.90
74822;DHT22;63353;48.702;8.884;2023-04-03T02:48:46;1.00;99.90
74822;DHT22;63353;48.702;8.884;2023-04-03T02:51:15;1.10;99.90
74822;DHT22;63353;48.702;8.884;2023-04-03T02:53:50;1.00;99.90
74822;DHT22;63353;48.702;8.884;2023-04-03T02:56:16;1.00;99.90
74822;DHT22;63353;48.702;8.884;2023-04-03T02:58:46;1.00;99.90
74822;DHT22;63353;48.702;8.884;2023-04-03T03:01:14;1.00;99.90
74822;DHT22;63353;48.702;8.884;2023-04-03T03:03:43;1.00;99.90
74822;DHT22;63353;48.702;8.884;2023-04-03T03:06:11;1.00;99.90
74822;DHT22;63353;48.702;8.884;2023-04-03T03:08:37;0.90;99.90
74822;DHT22;63353;48.702;8.884;2023-04-03T03:11:15;0.90;99.90
74822;DHT22;63353;48.702;8.884;2023-04-03T03:13:41;0.90;99.90
74822;DHT22;63353;48.702;8.884;2023-04-03T03:16:22;1.00;99.90
74822;DHT22;63353;48.702;8.884;2023-04-03T03:18:53;1.00;99.90
74822;DHT22;63353;48.702;8.884;2023-04-03T03:21:22;1.00;99.90
74822;DHT22;63353;48.702;8.884;2023-04-03T03:23:48;1.00;99.90
74822;DHT22;63353;48.702;8.884;2023-04-03T03:26:26;1.10;99.90
74822;DHT22;63353;48.702;8.884;2023-04-03T03:28:52;1.00;99.90
74822;DHT22;63353;48.702;8.884;2023-04-03T03:31:17;1.00;99.90
74822;DHT22;63353;48.702;8.884;2023-04-03T03:33:43;1.00;99.90
74822;DHT22;63353;48.702;8.884;2023-04-03T03:36:09;1.00;99.90
74822;DHT22;63353;48.702;8.884;2023-04-03T03:38:36;1.10;99.90
74822;DHT22;63353;48.702;8.884;2023-04-03T03:41:02;1.10;99.90
74822;DHT22;63353;48.702;8.884;2023-04-03T03:43:33;1.10;99.90
74822;DHT22;63353;48.702;8.884;2023-04-03T03:45:59;1.10;99.90
74822;DHT22;63353;48.702;8.884;2023-04-03T03:48:31;1.10;99.90
74822;DHT22;63353;48.702;8.884;2023-04-03T03:50:57;1.10;99.90
74822;DHT22;63353;48.702;8.884;2023-04-03T03:53:22;1.10;99.90
74822;DHT22;63353;48.702;8.884;2023-04-03T03:55:48;1.10;99.90
74822;DHT22;63353;48.702;8.884;2023-04-03T03:58:16;1.10;99.90
74822;DHT22;63353;48.702;8.884;2023-04-03T04:00:42;1.10;99.90
74822;DHT22;63353;48.702;8.884;2023-04-03T04:03:08;1.10;99.90
74822;DHT22;63353;48.702;8.884;2023-04-03T04:05:33;1.10;99.90
74822;DHT22;63353;48.702;8.884;2023-04-03T04:07:59;1.10;99.90
74822;DHT22;63353;48.702;8.884;2023-04-03T04:10:25;1.10;99.90
74822;DHT22;63353;48.702;8.884;2023-04-03T04:12:50;1.10;99.90
74822;DHT22;63353;48.702;8.884;2023-04-03T04:15:16;1.10;99.90
74822;DHT22;63353;48.702;8.884;2023-04-03T04:17:42;1.10;99.90
74822;DHT22;63353;48.702;8.884;2023-04-03T04:20:08;1.10;99.90
74822;DHT22;63353;48.702;8.884;2023-04-03T04:22:37;1.00;99.90
74822;DHT22;63353;48.702;8.884;2023-04-03T04:25:07;1.00;99.90
74822;DHT22;63353;48.702;8.884;2023-04-03T04:27:33;1.10;99.90
74822;DHT22;63353;48.702;8.884;2023-04-03T04:29:59;1.10;99.90
74822;DHT22;63353;48.702;8.884;2023-04-03T04:32:24;1.20;99.90
74822;DHT22;63353;48.702;8.884;2023-04-03T04:34:50;1.10;99.90
74822;DHT22;63353;48.702;8.884;2023-04-03T04:37:21;1.10;99.90
74822;DHT22;63353;48.702;8.884;2023-04-03T04:39:50;1.10;99.90
74822;DHT22;63353;48.702;8.884;2023-04-03T04:42:16;1.10;99.90
74822;DHT22;63353;48.702;8.884;2023-04-03T04:44:51;1.10;99.90
74822;DHT22;63353;48.702;8.884;2023-04-03T04:47:20;1.10;99.90
74822;DHT22;63353;48.702;8.884;2023-04-03T04:49:54;1.10;99.90
74822;DHT22;63353;48.702;8.884;2023-04-03T04:52:23;1.10;99.90
74822;DHT22;63353;48.702;8.884;2023-04-03T04:54:49;1.10;99.90
74822;DHT22;63353;48.702;8.884;2023-04-03T04:57:14;1.20;99.90
74822;DHT22;63353;48.702;8.884;2023-04-03T04:59:41;1.10;99.90
74822;DHT22;63353;48.702;8.884;2023-04-03T05:02:06;1.20;99.90
74822;DHT22;63353;48.702;8.884;2023-04-03T05:04:32;1.10;99.90
74822;DHT22;63353;48.702;8.884;2023-04-03T05:06:58;1.10;99.90
74822;DHT22;63353;48.702;8.884;2023-04-03T05:09:27;1.10;99.90
74822;DHT22;63353;48.702;8.884;2023-04-03T05:11:53;1.10;99.90
74822;DHT22;63353;48.702;8.884;2023-04-03T05:14:22;1.20;99.90
74822;DHT22;63353;48.702;8.884;2023-04-03T05:16:50;1.10;99.90
74822;DHT22;63353;48.702;8.884;2023-04-03T05:19:27;1.20;99.90
74822;DHT22;63353;48.702;8.884;2023-04-03T05:21:58;1.30;99.90
74822;DHT22;63353;48.702;8.884;2023-04-03T05:24:24;1.30;99.90
74822;DHT22;63353;48.702;8.884;2023-04-03T05:26:54;1.30;99.90
74822;DHT22;63353;48.702;8.884;2023-04-03T05:29:21;1.30;99.90
74822;DHT22;63353;48.702;8.884;2023-04-03T05:31:50;1.40;99.90
74822;DHT22;63353;48.702;8.884;2023-04-03T05:34:16;1.40;99.90
74822;DHT22;63353;48.702;8.884;2023-04-03T05:36:48;1.30;99.90
74822;DHT22;63353;48.702;8.884;2023-04-03T05:39:13;1.30;99.90
74822;DHT22;63353;48.702;8.884;2023-04-03T05:41:39;1.40;99.90
74822;DHT22;63353;48.702;8.884;2023-04-03T05:44:11;1.40;99.90
74822;DHT22;63353;48.702;8.884;2023-04-03T05:46:37;1.50;99.90
74822;DHT22;63353;48.702;8.884;2023-04-03T05:49:03;1.50;99.90
74822;DHT22;63353;48.702;8.884;2023-04-03T05:51:34;1.50;99.90
74822;DHT22;63353;48.702;8.884;2023-04-03T05:54:18;1.50;99.90
74822;DHT22;63353;48.702;8.884;2023-04-03T05:56:44;1.60;99.90
74822;DHT22;63353;48.702;8.884;2023-04-03T05:59:10;1.70;99.90
74822;DHT22;63353;48.702;8.884;2023-04-03T06:01:42;1.70;99.90
74822;DHT22;63353;48.702;8.884;2023-04-03T06:04:14;1.80;99.90
74822;DHT22;63353;48.702;8.884;2023-04-03T06:06:54;1.80;99.90
74822;DHT22;63353;48.702;8.884;2023-04-03T06:09:30;2.00;99.90
74822;DHT22;63353;48.702;8.884;2023-04-03T06:11:55;2.00;99.90
74822;DHT22;63353;48.702;8.884;2023-04-03T06:14:26;2.30;99.90
74822;DHT22;63353;48.702;8.884;2023-04-03T06:16:52;2.50;99.90
74822;DHT22;63353;48.702;8.884;2023-04-03T06:19:19;2.50;99.90
74822;DHT22;63353;48.702;8.884;2023-04-03T06:21:45;2.50;99.90
74822;DHT22;63353;48.702;8.884;2023-04-03T06:24:15;2.40;99.90
74822;DHT22;63353;48.702;8.884;2023-04-03T06:26:41;2.40;99.90
74822;DHT22;63353;48.702;8.884;2023-04-03T06:29:07;2.60;99.90
74822;DHT22;63353;48.702;8.884;2023-04-03T06:31:33;2.50;99.90
74822;DHT22;63353;48.702;8.884;2023-04-03T06:34:00;2.70;99.90
74822;DHT22;63353;48.702;8.884;2023-04-03T06:36:25;2.70;99.90
74822;DHT22;63353;48.702;8.884;2023-04-03T06:38:51;2.50;99.90
74822;DHT22;63353;48.702;8.884;2023-04-03T06:41:17;2.40;99.90
74822;DHT22;63353;48.702;8.884;2023-04-03T06:43:46;2.40;99.90
74822;DHT22;63353;48.702;8.884;2023-04-03T06:46:20;2.40;99.90
74822;DHT22;63353;48.702;8.884;2023-04-03T06:48:46;2.40;99.90
74822;DHT22;63353;48.702;8.884;2023-04-03T06:51:24;2.50;99.90
74822;DHT22;63353;48.702;8.884;2023-04-03T06:53:51;2.60;99.90
74822;DHT22;63353;48.702;8.884;2023-04-03T06:56:18;2.90;99.90
74822;DHT22;63353;48.702;8.884;2023-04-03T06:58:44;3.00;99.90
74822;DHT22;63353;48.702;8.884;2023-04-03T07:01:11;3.00;99.90
74822;DHT22;63353;48.702;8.884;2023-04-03T07:03:40;3.10;99.90
74822;DHT22;63353;48.702;8.884;2023-04-03T07:06:07;3.10;99.90
74822;DHT22;63353;48.702;8.884;2023-04-03T07:08:34;3.30;99.90
74822;DHT22;63353;48.702;8.884;2023-04-03T07:11:00;3.30;99.90
74822;DHT22;63353;48.702;8.884;2023-04-03T07:13:26;3.30;99.90
74822;DHT22;63353;48.702;8.884;2023-04-03T07:15:52;3.50;99.90
74822;DHT22;63353;48.702;8.884;2023-04-03T07:18:19;3.50;99.90
74822;DHT22;63353;48.702;8.884;2023-04-03T07:20:44;3.50;99.90
74822;DHT22;63353;48.702;8.884;2023-04-03T07:23:10;3.40;99.90
74822;DHT22;63353;48.702;8.884;2023-04-03T07:25:37;3.50;99.90
74822;DHT22;63353;48.702;8.884;2023-04-03T07:28:03;3.50;99.90
74822;DHT22;63353;48.702;8.884;2023-04-03T07:30:29;3.40;99.90
74822;DHT22;63353;48.702;8.884;2023-04-03T07:32:56;3.50;99.90
74822;DHT22;63353;48.702;8.884;2023-04-03T07:35:21;3.60;99.90
74822;DHT22;63353;48.702;8.884;2023-04-03T07:37:47;3.60;99.90
74822;DHT22;63353;48.702;8.884;2023-04-03T07:40:13;3.60;99.90
74822;DHT22;63353;48.702;8.884;2023-04-03T07:42:39;3.80;99.90
74822;DHT22;63353;48.702;8.884;2023-04-03T07:45:05;4.00;99.90
74822;DHT22;63353;48.702;8.884;2023-04-03T07:47:31;4.20;99.90
74822;DHT22;63353;48.702;8.884;2023-04-03T07:49:57;4.30;99.90
74822;DHT22;63353;48.702;8.884;2023-04-03T07:52:24;4.50;99.90
74822;DHT22;63353;48.702;8.884;2023-04-03T07:54:49;4.30;99.90
74822;DHT22;63353;48.702;8.884;2023-04-03T07:57:15;4.40;99.90
74822;DHT22;63353;48.702;8.884;2023-04-03T07:59:41;4.70;99.90
74822;DHT22;63353;48.702;8.884;2023-04-03T08:02:11;4.80;99.90
74822;DHT22;63353;48.702;8.884;2023-04-03T08:04:37;4.80;99.90
74822;DHT22;63353;48.702;8.884;2023-04-03T08:07:04;5.10;99.90
74822;DHT22;63353;48.702;8.884;2023-04-03T08:09:30;5.10;99.90
74822;DHT22;63353;48.702;8.884;2023-04-03T08:11:57;5.10;99.90
74822;DHT22;63353;48.702;8.884;2023-04-03T08:14:23;5.10;99.90
74822;DHT22;63353;48.702;8.884;2023-04-03T08:16:49;5.00;99.90
74822;DHT22;63353;48.702;8.884;2023-04-03T08:19:15;5.50;99.90
74822;DHT22;63353;48.702;8.884;2023-04-03T08:21:42;6.00;99.90
74822;DHT22;63353;48.702;8.884;2023-04-03T08:24:08;5.80;99.90
74822;DHT22;63353;48.702;8.884;2023-04-03T08:26:34;5.70;99.90
74822;DHT22;63353;48.702;8.884;2023-04-03T08:29:00;5.50;99.90
74822;DHT22;63353;48.702;8.884;2023-04-03T08:31:26;5.60;99.90
74822;DHT22;63353;48.702;8.884;2023-04-03T08:33:52;5.40;99.90
74822;DHT22;63353;48.702;8.884;2023-04-03T08:36:24;5.50;99.90
74822;DHT22;63353;48.702;8.884;2023-04-03T08:38:52;5.50;99.90
74822;DHT22;63353;48.702;8.884;2023-04-03T08:41:37;5.70;99.90
74822;DHT22;63353;48.702;8.884;2023-04-03T08:44:25;5.90;99.90
74822;DHT22;63353;48.702;8.884;2023-04-03T08:50:02;5.90;99.90
74822;DHT22;63353;48.702;8.884;2023-04-03T08:55:02;6.00;99.90
74822;DHT22;63353;48.702;8.884;2023-04-03T08:57:35;6.00;99.90
74822;DHT22;63353;48.702;8.884;2023-04-03T09:00:13;6.00;99.90
74822;DHT22;63353;48.702;8.884;2023-04-03T09:02:45;6.40;99.90
74822;DHT22;63353;48.702;8.884;2023-04-03T09:05:16;6.70;99.90
74822;DHT22;63353;48.702;8.884;2023-04-03T09:07:45;6.70;99.90
74822;DHT22;63353;48.702;8.884;2023-04-03T09:10:14;6.30;99.90
74822;DHT22;63353;48.702;8.884;2023-04-03T09:12:44;6.20;99.90
74822;DHT22;63353;48.702;8.884;2023-04-03T09:15:23;6.50;99.90
74822;DHT22;63353;48.702;8.884;2023-04-03T09:18:05;6.50;99.90
74822;DHT22;63353;48.702;8.884;2023-04-03T09:23:22;6.20;99.90
74822;DHT22;63353;48.702;8.884;2023-04-03T09:26:05;6.30;99.90
74822;DHT22;63353;48.702;8.884;2023-04-03T09:28:39;6.20;99.90
74822;DHT22;63353;48.702;8.884;2023-04-03T09:31:25;6.20;99.90
74822;DHT22;63353;48.702;8.884;2023-04-03T09:34:02;6.20;99.90
74822;DHT22;63353;48.702;8.884;2023-04-03T09:36:43;6.20;99.90
74822;DHT22;63353;48.702;8.884;2023-04-03T09:39:16;6.20;99.90
74822;DHT22;63353;48.702;8.884;2023-04-03T09:42:17;6.30;99.90
74822;DHT22;63353;48.702;8.884;2023-04-03T09:44:40;6.20;99.90
74822;DHT22;63353;48.702;8.884;2023-04-03T09:47:29;6.20;99.90
74822;DHT22;63353;48.702;8.884;2023-04-03T09:52:43;6.20;99.90
74822;DHT22;63353;48.702;8.884;2023-04-03T09:55:23;6.20;99.90
74822;DHT22;63353;48.702;8.884;2023-04-03T09:57:59;5.90;99.90
74822;DHT22;63353;48.702;8.884;2023-04-03T10:00:27;6.10;99.90
74822;DHT22;63353;48.702;8.884;2023-04-03T10:02:57;6.00;99.90
74822;DHT22;63353;48.702;8.884;2023-04-03T10:05:39;5.90;99.90
74822;DHT22;63353;48.702;8.884;2023-04-03T10:10:37;5.80;99.90
74822;DHT22;63353;48.702;8.884;2023-04-03T10:15:39;6.00;99.90
74822;DHT22;63353;48.702;8.884;2023-04-03T10:18:24;5.80;99.90
74822;DHT22;63353;48.702;8.884;2023-04-03T10:20:54;5.90;99.90
74822;DHT22;63353;48.702;8.884;2023-04-03T10:34:35;6.20;99.90
74822;DHT22;63353;48.702;8.884;2023-04-03T10:42:48;6.40;99.90
74822;DHT22;63353;48.702;8.884;2023-04-03T10:48:16;6.50;99.90
74822;DHT22;63353;48.702;8.884;2023-04-03T10:54:39;7.10;99.90
74822;DHT22;63353;48.702;8.884;2023-04-03T10:56:50;7.20;99.90
74822;DHT22;63353;48.702;8.884;2023-04-03T10:59:32;7.10;99.90
74822;DHT22;63353;48.702;8.884;2023-04-03T11:02:18;6.80;99.90
74822;DHT22;63353;48.702;8.884;2023-04-03T11:04:51;6.60;99.90
74822;DHT22;63353;48.702;8.884;2023-04-03T11:07:25;6.30;99.90
74822;DHT22;63353;48.702;8.884;2023-04-03T11:09:55;6.20;99.90
74822;DHT22;63353;48.702;8.884;2023-04-03T11:12:38;6.00;99.90
74822;DHT22;63353;48.702;8.884;2023-04-03T11:15:13;6.10;99.90
74822;DHT22;63353;48.702;8.884;2023-04-03T11:17:53;6.10;99.90
74822;DHT22;63353;48.702;8.884;2023-04-03T11:20:31;6.40;99.90
74822;DHT22;63353;48.702;8.884;2023-04-03T11:25:46;6.40;99.90
74822;DHT22;63353;48.702;8.884;2023-04-03T11:28:15;6.30;99.90
74822;DHT22;63353;48.702;8.884;2023-04-03T11:36:30;5.60;99.90
74822;DHT22;63353;48.702;8.884;2023-04-03T11:39:01;5.50;99.90
74822;DHT22;63353;48.702;8.884;2023-04-03T11:41:33;5.50;99.90
74822;DHT22;63353;48.702;8.884;2023-04-03T11:44:00;5.60;99.90
74822;DHT22;63353;48.702;8.884;2023-04-03T11:46:51;5.80;99.90
74822;DHT22;63353;48.702;8.884;2023-04-03T12:13:38;5.90;99.90
74822;DHT22;63353;48.702;8.884;2023-04-03T12:21:22;5.90;99.90
74822;DHT22;63353;48.702;8.884;2023-04-03T12:32:15;5.50;99.90
74822;DHT22;63353;48.702;8.884;2023-04-03T12:35:38;5.40;99.90
74822;DHT22;63353;48.702;8.884;2023-04-03T12:40:57;5.80;99.90
74822;DHT22;63353;48.702;8.884;2023-04-03T12:51:17;6.30;99.90
74822;DHT22;63353;48.702;8.884;2023-04-03T12:53:44;6.20;99.90
74822;DHT22;63353;48.702;8.884;2023-04-03T12:58:48;6.10;99.90
74822;DHT22;63353;48.702;8.884;2023-04-03T13:01:21;6.00;99.90
74822;DHT22;63353;48.702;8.884;2023-04-03T13:03:52;6.00;99.90
74822;DHT22;63353;48.702;8.884;2023-04-03T13:06:37;6.00;99.90
74822;DHT22;63353;48.702;8.884;2023-04-03T13:09:04;6.00;99.90
74822;DHT22;63353;48.702;8.884;2023-04-03T13:11:37;6.10;99.90
74822;DHT22;63353;48.702;8.884;2023-04-03T13:14:12;6.20;99.90
74822;DHT22;63353;48.702;8.884;2023-04-03T13:16:40;6.00;99.90
74822;DHT22;63353;48.702;8.884;2023-04-03T13:19:17;6.00;99.90
74822;DHT22;63353;48.702;8.884;2023-04-03T13:21:43;6.20;99.90
74822;DHT22;63353;48.702;8.884;2023-04-03T13:24:10;6.50;99.90
74822;DHT22;63353;48.702;8.884;2023-04-03T13:26:42;6.60;99.90
74822;DHT22;63353;48.702;8.884;2023-04-03T13:29:29;6.90;99.90
74822;DHT22;63353;48.702;8.884;2023-04-03T13:31:56;7.00;99.90
74822;DHT22;63353;48.702;8.884;2023-04-03T13:34:24;6.80;99.90
74822;DHT22;63353;48.702;8.884;2023-04-03T13:39:28;6.50;99.90
74822;DHT22;63353;48.702;8.884;2023-04-03T13:41:57;6.50;99.90
74822;DHT22;63353;48.702;8.884;2023-04-03T13:44:36;6.40;99.90
74822;DHT22;63353;48.702;8.884;2023-04-03T13:47:36;6.30;99.90
74822;DHT22;63353;48.702;8.884;2023-04-03T13:50:02;6.20;99.90
74822;DHT22;63353;48.702;8.884;2023-04-03T13:52:39;6.10;99.90
74822;DHT22;63353;48.702;8.884;2023-04-03T13:55:34;6.20;99.90
74822;DHT22;63353;48.702;8.884;2023-04-03T13:58:02;6.40;99.90
74822;DHT22;63353;48.702;8.884;2023-04-03T14:03:28;8.30;99.90
74822;DHT22;63353;48.702;8.884;2023-04-03T14:05:54;8.80;99.90
74822;DHT22;63353;48.702;8.884;2023-04-03T14:08:21;9.00;99.90
74822;DHT22;63353;48.702;8.884;2023-04-03T14:10:48;8.80;99.90
74822;DHT22;63353;48.702;8.884;2023-04-03T14:13:17;8.30;99.90
74822;DHT22;63353;48.702;8.884;2023-04-03T14:15:43;8.10;99.90
74822;DHT22;63353;48.702;8.884;2023-04-03T14:18:14;8.30;99.90
74822;DHT22;63353;48.702;8.884;2023-04-03T14:20:40;8.00;99.90
74822;DHT22;63353;48.702;8.884;2023-04-03T14:23:05;7.30;99.90
74822;DHT22;63353;48.702;8.884;2023-04-03T14:25:38;7.10;99.90
74822;DHT22;63353;48.702;8.884;2023-04-03T14:28:18;7.40;99.90
74822;DHT22;63353;48.702;8.884;2023-04-03T14:30:46;7.50;99.90
74822;DHT22;63353;48.702;8.884;2023-04-03T14:33:18;7.30;99.90
74822;DHT22;63353;48.702;8.884;2023-04-03T14:35:44;7.30;99.90
74822;DHT22;63353;48.702;8.884;2023-04-03T14:38:25;7.40;99.90
74822;DHT22;63353;48.702;8.884;2023-04-03T14:40:51;7.40;99.90
74822;DHT22;63353;48.702;8.884;2023-04-03T14:43:17;7.30;99.90
74822;DHT22;63353;48.702;8.884;2023-04-03T14:45:44;7.10;99.90
74822;DHT22;63353;48.702;8.884;2023-04-03T14:48:17;7.30;99.90
74822;DHT22;63353;48.702;8.884;2023-04-03T14:50:43;7.40;99.90
74822;DHT22;63353;48.702;8.884;2023-04-03T14:53:11;7.40;99.90
74822;DHT22;63353;48.702;8.884;2023-04-03T14:55:38;7.00;99.90
74822;DHT22;63353;48.702;8.884;2023-04-03T14:58:04;6.60;99.90
74822;DHT22;63353;48.702;8.884;2023-04-03T15:00:29;6.70;99.90
74822;DHT22;63353;48.702;8.884;2023-04-03T15:02:55;6.50;99.90
74822;DHT22;63353;48.702;8.884;2023-04-03T15:05:24;6.50;99.90
74822;DHT22;63353;48.702;8.884;2023-04-03T15:07:53;6.70;99.90
74822;DHT22;63353;48.702;8.884;2023-04-03T15:10:22;6.60;99.90
74822;DHT22;63353;48.702;8.884;2023-04-03T15:12:49;6.60;99.90
74822;DHT22;63353;48.702;8.884;2023-04-03T15:15:17;6.60;99.90
74822;DHT22;63353;48.702;8.884;2023-04-03T15:17:44;6.60;99.90
74822;DHT22;63353;48.702;8.884;2023-04-03T15:20:17;6.40;99.90
74822;DHT22;63353;48.702;8.884;2023-04-03T15:22:47;6.30;99.90
74822;DHT22;63353;48.702;8.884;2023-04-03T15:25:13;6.30;99.90
74822;DHT22;63353;48.702;8.884;2023-04-03T15:27:40;7.00;99.90
74822;DHT22;63353;48.702;8.884;2023-04-03T15:30:08;7.40;99.90
74822;DHT22;63353;48.702;8.884;2023-04-03T15:32:36;9.50;99.90
74822;DHT22;63353;48.702;8.884;2023-04-03T15:35:02;11.30;99.90
74822;DHT22;63353;48.702;8.884;2023-04-03T15:37:28;13.60;99.90
74822;DHT22;63353;48.702;8.884;2023-04-03T15:40:00;15.00;90.00
74822;DHT22;63353;48.702;8.884;2023-04-03T15:42:25;16.20;89.20
74822;DHT22;63353;48.702;8.884;2023-04-03T15:44:51;14.50;77.50
74822;DHT22;63353;48.702;8.884;2023-04-03T15:47:18;13.10;75.70
74822;DHT22;63353;48.702;8.884;2023-04-03T15:49:47;11.80;79.20
74822;DHT22;63353;48.702;8.884;2023-04-03T15:52:18;10.80;84.50
74822;DHT22;63353;48.702;8.884;2023-04-03T15:54:44;9.90;85.90
74822;DHT22;63353;48.702;8.884;2023-04-03T15:57:10;8.80;85.90
74822;DHT22;63353;48.702;8.884;2023-04-03T15:59:36;9.30;90.60
74822;DHT22;63353;48.702;8.884;2023-04-03T16:02:04;9.30;90.30
74822;DHT22;63353;48.702;8.884;2023-04-03T16:04:33;8.60;91.10
74822;DHT22;63353;48.702;8.884;2023-04-03T16:07:04;7.80;91.90
74822;DHT22;63353;48.702;8.884;2023-04-03T16:09:33;7.60;94.90
74822;DHT22;63353;48.702;8.884;2023-04-03T16:12:02;7.80;96.50
74822;DHT22;63353;48.702;8.884;2023-04-03T16:14:31;9.70;97.20
74822;DHT22;63353;48.702;8.884;2023-04-03T16:16:58;10.40;88.80
74822;DHT22;63353;48.702;8.884;2023-04-03T16:19:24;10.10;87.80
74822;DHT22;63353;48.702;8.884;2023-04-03T16:21:49;10.80;88.70
74822;DHT22;63353;48.702;8.884;2023-04-03T16:24:15;11.60;91.20
74822;DHT22;63353;48.702;8.884;2023-04-03T16:26:47;13.00;83.90
74822;DHT22;63353;48.702;8.884;2023-04-03T16:29:18;11.40;81.30
74822;DHT22;63353;48.702;8.884;2023-04-03T16:31:47;10.20;85.40
74822;DHT22;63353;48.702;8.884;2023-04-03T16:34:16;9.10;88.10
74822;DHT22;63353;48.702;8.884;2023-04-03T16:36:48;8.10;90.80
74822;DHT22;63353;48.702;8.884;2023-04-03T16:39:13;7.40;92.00
74822;DHT22;63353;48.702;8.884;2023-04-03T16:41:42;6.90;92.30
74822;DHT22;63353;48.702;8.884;2023-04-03T16:44:07;7.20;92.90
74822;DHT22;63353;48.702;8.884;2023-04-03T16:46:36;8.10;92.30
74822;DHT22;63353;48.702;8.884;2023-04-03T16:49:08;9.50;92.20
74822;DHT22;63353;48.702;8.884;2023-04-03T16:51:34;11.60;90.50
74822;DHT22;63353;48.702;8.884;2023-04-03T16:54:00;12.50;83.50
74822;DHT22;63353;48.702;8.884;2023-04-03T16:56:26;13.60;81.50
74822;DHT22;63353;48.702;8.884;2023-04-03T16:58:55;14.50;76.80
74822;DHT22;63353;48.702;8.884;2023-04-03T17:01:22;14.60;70.70
74822;DHT22;63353;48.702;8.884;2023-04-03T17:03:50;14.70;70.80
74822;DHT22;63353;48.702;8.884;2023-04-03T17:06:18;15.10;74.10
74822;DHT22;63353;48.702;8.884;2023-04-03T17:08:47;14.50;67.50
74822;DHT22;63353;48.702;8.884;2023-04-03T17:11:13;13.10;74.10
74822;DHT22;63353;48.702;8.884;2023-04-03T17:13:42;11.80;74.50
74822;DHT22;63353;48.702;8.884;2023-04-03T17:16:12;10.50;72.80
74822;DHT22;63353;48.702;8.884;2023-04-03T17:18:39;9.20;75.30
74822;DHT22;63353;48.702;8.884;2023-04-03T17:21:05;8.00;79.50
74822;DHT22;63353;48.702;8.884;2023-04-03T17:23:32;7.40;84.60
74822;DHT22;63353;48.702;8.884;2023-04-03T17:26:03;6.80;87.00
74822;DHT22;63353;48.702;8.884;2023-04-03T17:28:31;6.40;89.20
74822;DHT22;63353;48.702;8.884;2023-04-03T17:30:59;6.20;90.20
74822;DHT22;63353;48.702;8.884;2023-04-03T17:33:25;6.10;90.50
74822;DHT22;63353;48.702;8.884;2023-04-03T17:35:56;6.20;91.20
74822;DHT22;63353;48.702;8.884;2023-04-03T17:38:22;6.10;90.70
74822;DHT22;63353;48.702;8.884;2023-04-03T17:40:48;5.80;91.10
74822;DHT22;63353;48.702;8.884;2023-04-03T17:43:13;5.50;92.10
74822;DHT22;63353;48.702;8.884;2023-04-03T17:45:39;5.30;92.60
74822;DHT22;63353;48.702;8.884;2023-04-03T17:48:05;5.00;94.70
74822;DHT22;63353;48.702;8.884;2023-04-03T17:50:33;4.80;95.70
74822;DHT22;63353;48.702;8.884;2023-04-03T17:52:59;4.70;96.20
74822;DHT22;63353;48.702;8.884;2023-04-03T17:55:24;4.60;97.00